createdAt,value
2019-05-25T00:01:01.983Z,10.80
2019-05-25T00:03:30.730Z,10.60
2019-05-25T00:05:59.450Z,10.70
2019-05-25T00:08:28.160Z,10.60
2019-05-25T00:10:56.729Z,10.50
2019-05-25T00:13:25.610Z,10.40
2019-05-25T00:15:54.559Z,10.40
2019-05-25T00:18:23.216Z,10.40
2019-05-25T00:20:51.837Z,10.40
2019-05-25T00:23:20.511Z,10.60
2019-05-25T00:25:49.125Z,10.60
2019-05-25T00:28:17.743Z,10.60
2019-05-25T00:30:46.349Z,10.60
2019-05-25T00:33:15.002Z,10.50
2019-05-25T00:35:43.726Z,10.50
2019-05-25T00:38:12.285Z,10.50
2019-05-25T00:40:40.949Z,10.40
2019-05-25T00:43:09.572Z,10.40
2019-05-25T00:45:38.486Z,10.40
2019-05-25T00:48:07.158Z,10.50
2019-05-25T00:50:36.471Z,10.50
2019-05-25T00:53:05.137Z,10.50
2019-05-25T00:55:33.861Z,10.50
2019-05-25T00:58:02.448Z,10.50
2019-05-25T01:00:32.952Z,10.50
2019-05-25T01:03:01.544Z,10.60
2019-05-25T01:05:33.041Z,10.60
2019-05-25T01:08:01.771Z,10.70
2019-05-25T01:10:30.398Z,10.70
2019-05-25T01:12:58.996Z,10.70
2019-05-25T01:15:27.641Z,10.70
2019-05-25T01:17:56.263Z,10.70
2019-05-25T01:20:26.797Z,10.70
2019-05-25T01:22:55.396Z,10.60
2019-05-25T01:25:24.123Z,10.60
2019-05-25T01:27:52.712Z,10.70
2019-05-25T01:30:22.407Z,10.80
2019-05-25T01:32:50.985Z,10.80
2019-05-25T01:35:19.630Z,10.90
2019-05-25T01:37:48.766Z,11.00
2019-05-25T01:40:18.097Z,11.00
2019-05-25T01:42:46.703Z,11.10
2019-05-25T01:45:15.507Z,11.10
2019-05-25T01:47:44.104Z,11.10
2019-05-25T01:50:12.901Z,11.30
2019-05-25T01:52:41.499Z,11.10
2019-05-25T01:55:10.430Z,11.10
2019-05-25T01:57:39.016Z,11.10
2019-05-25T02:00:08.650Z,11.10
2019-05-25T02:02:37.310Z,11.10
2019-05-25T02:05:07.140Z,11.20
2019-05-25T02:07:35.769Z,11.20
2019-05-25T02:10:07.008Z,11.20
2019-05-25T02:12:35.976Z,11.20
2019-05-25T02:15:07.640Z,11.10
2019-05-25T02:17:36.332Z,11.20
2019-05-25T02:20:08.765Z,11.20
2019-05-25T02:22:37.394Z,11.20
2019-05-25T02:25:17.546Z,11.30
2019-05-25T02:27:39.263Z,11.30
2019-05-25T02:30:09.462Z,11.20
2019-05-25T02:32:38.186Z,11.10
2019-05-25T02:35:07.457Z,11.10
2019-05-25T02:37:36.062Z,11.00
2019-05-25T02:40:06.899Z,10.90
2019-05-25T02:42:35.597Z,11.00
2019-05-25T02:45:08.338Z,11.10
2019-05-25T02:47:36.898Z,11.20
2019-05-25T02:50:07.929Z,11.20
2019-05-25T02:52:36.597Z,11.20
2019-05-25T02:55:07.833Z,11.20
2019-05-25T02:57:36.429Z,11.30
2019-05-25T03:00:08.862Z,11.30
2019-05-25T03:02:37.609Z,11.40
2019-05-25T03:05:08.717Z,11.50
2019-05-25T03:07:38.425Z,11.40
2019-05-25T03:10:07.896Z,11.40
2019-05-25T03:12:35.733Z,11.60
2019-05-25T03:15:07.733Z,11.80
2019-05-25T03:17:36.486Z,11.90
2019-05-25T03:20:08.639Z,11.90
2019-05-25T03:22:37.227Z,12.10
2019-05-25T03:25:07.432Z,12.10
2019-05-25T03:27:36.104Z,12.10
2019-05-25T03:30:06.967Z,12.10
2019-05-25T03:32:36.523Z,12.10
2019-05-25T03:35:09.087Z,12.10
2019-05-25T03:37:37.934Z,12.10
2019-05-25T03:40:08.851Z,12.10
2019-05-25T03:42:37.413Z,12.10
2019-05-25T03:45:07.651Z,12.10
2019-05-25T03:47:36.286Z,12.20
2019-05-25T03:50:06.431Z,12.20
2019-05-25T03:52:35.133Z,12.10
2019-05-25T03:55:05.025Z,12.20
2019-05-25T03:57:33.794Z,12.10
2019-05-25T04:00:02.486Z,12.20
2019-05-25T04:02:31.079Z,12.30
2019-05-25T04:04:59.649Z,12.40
2019-05-25T04:07:28.255Z,12.40
2019-05-25T04:09:56.867Z,12.50
2019-05-25T04:12:25.421Z,12.50
2019-05-25T04:14:54.031Z,12.50
2019-05-25T04:17:22.622Z,12.50
2019-05-25T04:19:51.193Z,12.40
2019-05-25T04:22:19.893Z,12.40
2019-05-25T04:24:48.480Z,12.30
2019-05-25T04:27:17.067Z,12.40
2019-05-25T04:29:45.660Z,12.40
2019-05-25T04:32:14.285Z,12.40
2019-05-25T04:34:42.890Z,12.40
2019-05-25T04:37:11.453Z,12.50
2019-05-25T04:39:40.168Z,12.50
2019-05-25T04:42:08.766Z,12.50
2019-05-25T04:44:37.383Z,12.50
2019-05-25T04:47:06.132Z,12.40
2019-05-25T04:49:34.717Z,12.40
2019-05-25T04:52:03.504Z,12.40
2019-05-25T04:54:32.118Z,12.30
2019-05-25T04:57:00.808Z,12.40
2019-05-25T04:59:29.343Z,12.30
2019-05-25T05:01:58.023Z,12.30
2019-05-25T05:04:26.628Z,12.30
2019-05-25T05:06:55.277Z,12.20
2019-05-25T05:09:23.999Z,12.20
2019-05-25T05:11:52.581Z,12.10
2019-05-25T05:14:21.202Z,12.10
2019-05-25T05:16:49.883Z,12.10
2019-05-25T05:19:18.477Z,12.10
2019-05-25T05:21:47.066Z,12.00
2019-05-25T05:24:15.668Z,11.80
2019-05-25T05:26:55.284Z,11.60
2019-05-25T05:29:14.682Z,11.50
2019-05-25T05:31:43.446Z,11.50
2019-05-25T05:34:12.135Z,11.50
2019-05-25T05:36:41.603Z,11.70
2019-05-25T05:39:09.469Z,11.80
2019-05-25T05:41:41.425Z,11.80
2019-05-25T05:44:10.529Z,11.80
2019-05-25T05:46:39.473Z,11.80
2019-05-25T05:49:09.846Z,11.90
2019-05-25T05:51:39.086Z,12.00
2019-05-25T05:54:07.712Z,12.10
2019-05-25T05:56:36.289Z,12.10
2019-05-25T05:59:05.038Z,12.10
2019-05-25T06:01:33.803Z,12.10
2019-05-25T06:04:02.416Z,12.00
2019-05-25T06:06:31.056Z,12.00
2019-05-25T06:08:59.757Z,12.10
2019-05-25T06:11:28.393Z,12.10
2019-05-25T06:13:56.993Z,12.10
2019-05-25T06:16:25.645Z,12.20
2019-05-25T06:18:54.234Z,12.20
2019-05-25T06:21:22.837Z,12.20
2019-05-25T06:23:51.462Z,12.40
2019-05-25T06:26:20.169Z,12.50
2019-05-25T06:28:48.803Z,12.70
2019-05-25T06:31:17.357Z,12.90
2019-05-25T06:33:45.933Z,12.90
2019-05-25T06:36:14.505Z,13.00
2019-05-25T06:38:43.092Z,12.90
2019-05-25T06:41:11.817Z,12.80
2019-05-25T06:43:40.442Z,12.80
2019-05-25T06:46:09.073Z,12.70
2019-05-25T06:48:37.763Z,12.90
2019-05-25T06:51:06.555Z,13.00
2019-05-25T06:53:35.114Z,13.10
2019-05-25T06:56:03.781Z,13.20
2019-05-25T06:58:32.448Z,13.40
2019-05-25T07:01:01.038Z,13.70
2019-05-25T07:03:29.758Z,13.90
2019-05-25T07:05:58.474Z,15.20
2019-05-25T07:08:27.059Z,16.30
2019-05-25T07:10:55.714Z,16.60
2019-05-25T07:13:24.332Z,18.00
2019-05-25T07:15:52.917Z,18.40
2019-05-25T07:18:21.481Z,18.60
2019-05-25T07:20:50.183Z,17.90
2019-05-25T07:23:18.796Z,19.10
2019-05-25T07:25:47.550Z,18.50
2019-05-25T07:28:16.202Z,19.70
2019-05-25T07:30:46.650Z,18.50
2019-05-25T07:33:15.214Z,18.90
2019-05-25T07:35:43.875Z,20.80
2019-05-25T07:38:12.490Z,20.70
2019-05-25T07:40:41.075Z,18.90
2019-05-25T07:43:09.746Z,18.70
2019-05-25T07:45:38.506Z,18.90
2019-05-25T07:48:07.260Z,20.20
2019-05-25T07:50:35.896Z,20.30
2019-05-25T07:53:04.732Z,21.10
2019-05-25T07:55:33.349Z,20.70
2019-05-25T07:58:15.680Z,20.70
2019-05-25T08:00:32.330Z,20.50
2019-05-25T08:03:00.926Z,21.70
2019-05-25T08:05:29.590Z,22.60
2019-05-25T08:07:58.219Z,22.30
2019-05-25T08:10:26.840Z,21.70
2019-05-25T08:12:55.478Z,20.90
2019-05-25T08:15:24.241Z,20.20
2019-05-25T08:17:53.029Z,20.00
2019-05-25T08:20:21.778Z,19.50
2019-05-25T08:22:50.506Z,18.50
2019-05-25T08:25:19.706Z,17.70
2019-05-25T08:27:48.329Z,17.70
2019-05-25T08:30:16.960Z,18.20
2019-05-25T08:32:45.641Z,18.60
2019-05-25T08:35:14.546Z,19.10
2019-05-25T08:37:43.163Z,19.20
2019-05-25T08:40:11.988Z,19.10
2019-05-25T08:42:40.581Z,19.50
2019-05-25T08:45:09.883Z,20.00
2019-05-25T08:47:37.749Z,21.20
2019-05-25T08:50:08.048Z,22.00
2019-05-25T08:52:37.063Z,22.10
2019-05-25T08:55:07.108Z,22.00
2019-05-25T08:57:36.498Z,23.30
2019-05-25T09:00:07.244Z,25.10
2019-05-25T09:02:35.863Z,25.10
2019-05-25T09:05:07.708Z,23.00
2019-05-25T09:07:36.274Z,21.60
2019-05-25T09:10:08.274Z,21.40
2019-05-25T09:12:36.969Z,22.10
2019-05-25T09:15:06.584Z,22.60
2019-05-25T09:17:35.449Z,21.80
2019-05-25T09:20:06.611Z,21.30
2019-05-25T09:22:35.189Z,20.10
2019-05-25T09:25:07.734Z,19.80
2019-05-25T09:27:36.325Z,19.40
2019-05-25T09:30:07.122Z,18.90
2019-05-25T09:32:35.815Z,18.90
2019-05-25T09:35:07.570Z,20.50
2019-05-25T09:37:36.202Z,20.30
2019-05-25T09:40:05.870Z,20.30
2019-05-25T09:42:34.567Z,20.10
2019-05-25T09:45:03.887Z,20.00
2019-05-25T09:47:31.720Z,20.00
2019-05-25T09:50:00.258Z,22.30
2019-05-25T09:52:28.824Z,23.20
2019-05-25T09:54:57.351Z,21.70
2019-05-25T09:57:25.922Z,22.40
2019-05-25T09:59:54.510Z,23.60
2019-05-25T10:02:23.080Z,24.70
2019-05-25T10:04:51.810Z,24.20
2019-05-25T10:07:20.462Z,24.20
2019-05-25T10:09:49.042Z,23.80
2019-05-25T10:12:17.725Z,22.90
2019-05-25T10:14:46.282Z,20.60
2019-05-25T10:17:14.917Z,20.40
2019-05-25T10:19:43.518Z,20.20
2019-05-25T10:22:12.111Z,19.90
2019-05-25T10:24:40.714Z,20.20
2019-05-25T10:27:09.403Z,20.40
2019-05-25T10:29:38.031Z,20.20
2019-05-25T10:32:06.585Z,20.10
2019-05-25T10:34:35.144Z,19.90
2019-05-25T10:37:03.811Z,19.60
2019-05-25T10:39:32.449Z,19.60
2019-05-25T10:42:01.044Z,19.70
2019-05-25T10:44:29.654Z,19.40
2019-05-25T10:46:58.242Z,19.60
2019-05-25T10:49:26.928Z,19.60
2019-05-25T10:51:55.622Z,20.10
2019-05-25T10:54:24.311Z,20.40
2019-05-25T10:56:52.898Z,20.40
2019-05-25T10:59:21.566Z,20.60
2019-05-25T11:01:50.238Z,20.60
2019-05-25T11:04:18.945Z,20.10
2019-05-25T11:06:47.514Z,19.80
2019-05-25T11:09:16.106Z,19.60
2019-05-25T11:11:44.694Z,19.80
2019-05-25T11:14:13.262Z,20.10
2019-05-25T11:16:41.849Z,19.90
2019-05-25T11:19:10.480Z,19.60
2019-05-25T11:21:39.107Z,20.20
2019-05-25T11:24:07.686Z,20.50
2019-05-25T11:26:36.249Z,20.00
2019-05-25T11:29:05.015Z,20.30
2019-05-25T11:31:33.745Z,20.30
2019-05-25T11:34:02.427Z,20.20
2019-05-25T11:36:31.091Z,20.00
2019-05-25T11:38:59.691Z,19.40
2019-05-25T11:41:28.642Z,19.30
2019-05-25T11:43:57.301Z,19.50
2019-05-25T11:46:25.876Z,19.90
2019-05-25T11:48:54.462Z,20.10
2019-05-25T11:51:23.104Z,19.90
2019-05-25T11:53:51.764Z,19.90
2019-05-25T11:56:20.413Z,20.10
2019-05-25T11:58:48.989Z,19.90
2019-05-25T12:01:17.718Z,19.60
2019-05-25T12:03:46.322Z,19.70
2019-05-25T12:06:14.886Z,20.50
2019-05-25T12:08:43.530Z,20.00
2019-05-25T12:11:12.115Z,19.40
2019-05-25T12:13:40.709Z,19.80
2019-05-25T12:16:09.366Z,19.80
2019-05-25T12:18:38.002Z,19.80
2019-05-25T12:21:06.713Z,19.90
2019-05-25T12:23:35.397Z,19.60
2019-05-25T12:26:04.068Z,19.70
2019-05-25T12:28:32.714Z,19.70
2019-05-25T12:31:01.370Z,19.30
2019-05-25T12:33:29.958Z,19.20
2019-05-25T12:35:58.681Z,19.30
2019-05-25T12:38:27.359Z,19.50
2019-05-25T12:40:55.925Z,19.70
2019-05-25T12:43:24.485Z,19.70
2019-05-25T12:45:53.251Z,19.60
2019-05-25T12:48:21.910Z,19.50
2019-05-25T12:50:50.494Z,19.20
2019-05-25T12:53:19.192Z,18.70
2019-05-25T12:55:47.855Z,18.90
2019-05-25T12:58:16.434Z,19.30
2019-05-25T13:00:55.675Z,19.90
2019-05-25T13:03:15.375Z,19.60
2019-05-25T13:05:43.982Z,19.50
2019-05-25T13:08:12.558Z,19.20
2019-05-25T13:10:41.137Z,19.10
2019-05-25T13:13:09.798Z,19.10
2019-05-25T13:15:38.429Z,19.50
2019-05-25T13:18:07.144Z,19.50
2019-05-25T13:20:35.839Z,19.10
2019-05-25T13:23:05.543Z,19.10
2019-05-25T13:25:34.260Z,19.20
2019-05-25T13:28:02.934Z,19.00
2019-05-25T13:30:31.599Z,19.20
2019-05-25T13:33:00.293Z,18.90
2019-05-25T13:35:28.901Z,18.60
2019-05-25T13:37:57.495Z,18.60
2019-05-25T13:40:26.182Z,18.70
2019-05-25T13:42:54.786Z,18.60
2019-05-25T13:45:23.397Z,18.80
2019-05-25T13:47:51.992Z,18.90
2019-05-25T13:50:20.636Z,18.80
2019-05-25T13:52:49.226Z,18.60
2019-05-25T13:55:18.056Z,18.90
2019-05-25T13:57:46.633Z,18.80
2019-05-25T14:00:15.593Z,18.70
2019-05-25T14:02:44.234Z,18.70
2019-05-25T14:05:13.766Z,18.50
2019-05-25T14:07:42.382Z,18.70
2019-05-25T14:10:12.069Z,18.80
2019-05-25T14:12:40.678Z,18.90
2019-05-25T14:15:10.886Z,18.80
2019-05-25T14:17:41.996Z,18.70
2019-05-25T14:20:11.471Z,18.80
2019-05-25T14:22:39.217Z,18.70
2019-05-25T14:25:08.841Z,18.60
2019-05-25T14:27:37.626Z,18.50
2019-05-25T14:30:07.185Z,18.10
2019-05-25T14:32:35.760Z,18.10
2019-05-25T14:35:05.953Z,18.00
2019-05-25T14:37:34.593Z,17.80
2019-05-25T14:40:04.267Z,18.00
2019-05-25T14:42:33.027Z,18.30
2019-05-25T14:45:01.646Z,18.20
2019-05-25T14:47:30.400Z,18.10
2019-05-25T14:49:58.955Z,17.90
2019-05-25T14:52:27.534Z,18.10
2019-05-25T14:54:56.187Z,18.00
2019-05-25T14:57:24.774Z,18.20
2019-05-25T14:59:53.358Z,18.00
2019-05-25T15:02:21.947Z,17.90
2019-05-25T15:04:50.577Z,18.00
2019-05-25T15:07:19.167Z,17.90
2019-05-25T15:09:47.721Z,17.60
2019-05-25T15:12:16.311Z,17.60
2019-05-25T15:14:44.915Z,17.80
2019-05-25T15:17:13.599Z,17.80
2019-05-25T15:19:42.384Z,18.10
2019-05-25T15:22:11.260Z,18.00
2019-05-25T15:24:40.164Z,18.00
2019-05-25T15:27:08.825Z,17.80
2019-05-25T15:29:37.482Z,17.90
2019-05-25T15:32:18.703Z,18.00
2019-05-25T15:34:36.965Z,17.80
2019-05-25T15:37:05.738Z,17.60
2019-05-25T15:39:34.442Z,17.70
2019-05-25T15:42:03.245Z,17.70
2019-05-25T15:44:31.814Z,17.60
2019-05-25T15:47:03.994Z,17.80
2019-05-25T15:49:33.555Z,17.70
2019-05-25T15:52:01.023Z,17.60
2019-05-25T15:54:29.590Z,17.30
2019-05-25T15:56:58.217Z,17.20
2019-05-25T15:59:26.825Z,17.20
2019-05-25T16:01:55.587Z,17.40
2019-05-25T16:04:24.371Z,17.50
2019-05-25T16:06:53.060Z,17.30
2019-05-25T16:09:21.625Z,17.30
2019-05-25T16:11:50.190Z,17.50
2019-05-25T16:14:19.032Z,17.50
2019-05-25T16:16:47.666Z,17.60
2019-05-25T16:19:16.335Z,17.40
2019-05-25T16:21:44.969Z,17.40
2019-05-25T16:24:13.617Z,17.10
2019-05-25T16:26:45.875Z,17.00
2019-05-25T16:29:12.558Z,16.80
2019-05-25T16:31:41.167Z,16.60
2019-05-25T16:34:09.749Z,16.50
2019-05-25T16:36:38.341Z,16.40
2019-05-25T16:39:08.046Z,16.60
2019-05-25T16:41:36.669Z,16.60
2019-05-25T16:44:05.488Z,16.60
2019-05-25T16:46:34.032Z,16.70
2019-05-25T16:49:02.651Z,16.80
2019-05-25T16:51:31.293Z,16.70
2019-05-25T16:54:00.131Z,16.50
2019-05-25T16:56:28.727Z,16.40
2019-05-25T16:58:57.284Z,16.40
2019-05-25T17:01:25.916Z,16.40
2019-05-25T17:03:54.663Z,16.20
2019-05-25T17:06:23.314Z,16.20
2019-05-25T17:08:55.879Z,16.20
2019-05-25T17:11:22.219Z,16.30
2019-05-25T17:13:50.834Z,16.20
2019-05-25T17:16:19.430Z,16.10
2019-05-25T17:18:48.065Z,16.10
2019-05-25T17:21:16.683Z,16.10
2019-05-25T17:23:45.238Z,16.10
2019-05-25T17:26:13.805Z,15.90
2019-05-25T17:28:42.398Z,15.90
2019-05-25T17:31:11.127Z,15.80
2019-05-25T17:33:45.925Z,15.70
2019-05-25T17:36:12.976Z,15.80
2019-05-25T17:38:40.565Z,15.70
2019-05-25T17:41:09.254Z,15.60
2019-05-25T17:43:37.830Z,15.60
2019-05-25T17:46:06.471Z,15.60
2019-05-25T17:48:35.137Z,15.60
2019-05-25T17:51:03.904Z,15.60
2019-05-25T17:53:32.526Z,15.60
2019-05-25T17:56:01.126Z,15.50
2019-05-25T17:58:29.787Z,15.40
2019-05-25T18:00:58.513Z,15.40
2019-05-25T18:03:27.131Z,15.30
2019-05-25T18:05:55.707Z,15.30
2019-05-25T18:08:24.432Z,15.20
2019-05-25T18:10:54.563Z,15.30
2019-05-25T18:13:23.231Z,15.20
2019-05-25T18:15:52.009Z,15.20
2019-05-25T18:18:20.701Z,15.10
2019-05-25T18:20:49.696Z,15.10
2019-05-25T18:23:18.071Z,15.20
2019-05-25T18:25:46.594Z,15.10
2019-05-25T18:28:15.155Z,15.10
2019-05-25T18:30:43.734Z,15.00
2019-05-25T18:33:12.434Z,14.90
2019-05-25T18:35:41.134Z,14.90
2019-05-25T18:38:09.720Z,15.00
2019-05-25T18:40:38.370Z,14.90
2019-05-25T18:43:07.112Z,14.90
2019-05-25T18:45:35.806Z,14.90
2019-05-25T18:48:04.829Z,14.80
2019-05-25T18:50:33.490Z,14.80
2019-05-25T18:53:02.136Z,14.80
2019-05-25T18:55:30.702Z,14.70
2019-05-25T18:57:59.301Z,14.70
2019-05-25T19:00:28.411Z,14.70
2019-05-25T19:02:57.216Z,14.70
2019-05-25T19:05:25.930Z,14.70
2019-05-25T19:07:54.484Z,14.60
2019-05-25T19:10:23.303Z,14.70
2019-05-25T19:12:51.921Z,14.60
2019-05-25T19:15:20.966Z,14.70
2019-05-25T19:17:49.634Z,14.70
2019-05-25T19:20:21.231Z,14.70
2019-05-25T19:22:48.965Z,14.60
2019-05-25T19:25:17.857Z,14.60
2019-05-25T19:27:46.502Z,14.60
2019-05-25T19:30:15.638Z,14.50
2019-05-25T19:32:44.407Z,14.50
2019-05-25T19:35:13.458Z,14.50
2019-05-25T19:37:42.678Z,14.50
2019-05-25T19:40:11.034Z,14.50
2019-05-25T19:42:39.798Z,14.30
2019-05-25T19:45:09.679Z,14.30
2019-05-25T19:47:38.463Z,14.20
2019-05-25T19:50:08.215Z,14.10
2019-05-25T19:52:36.857Z,14.00
2019-05-25T19:55:06.726Z,13.90
2019-05-25T19:57:35.366Z,13.80
2019-05-25T20:00:08.534Z,13.70
2019-05-25T20:02:37.150Z,13.60
2019-05-25T20:05:16.232Z,13.50
2019-05-25T20:07:38.235Z,13.50
2019-05-25T20:10:08.931Z,13.50
2019-05-25T20:12:37.615Z,13.60
2019-05-25T20:15:08.216Z,13.60
2019-05-25T20:17:37.035Z,13.70
2019-05-25T20:20:06.933Z,13.60
2019-05-25T20:22:35.601Z,13.70
2019-05-25T20:25:06.138Z,13.70
2019-05-25T20:27:34.817Z,13.60
2019-05-25T20:30:05.311Z,13.60
2019-05-25T20:32:33.974Z,13.60
2019-05-25T20:35:02.511Z,13.60
2019-05-25T20:37:31.147Z,13.60
2019-05-25T20:39:59.730Z,13.60
2019-05-25T20:42:28.298Z,13.60
2019-05-25T20:44:56.887Z,13.50
2019-05-25T20:47:25.509Z,13.50
2019-05-25T20:49:54.148Z,13.40
2019-05-25T20:52:22.767Z,13.30
2019-05-25T20:54:51.407Z,13.30
2019-05-25T20:57:19.978Z,13.30
2019-05-25T20:59:48.593Z,13.30
2019-05-25T21:02:17.174Z,13.30
2019-05-25T21:04:45.813Z,13.20
2019-05-25T21:07:14.379Z,13.20
2019-05-25T21:09:43.023Z,13.10
2019-05-25T21:12:11.741Z,13.10
2019-05-25T21:14:40.323Z,13.00
2019-05-25T21:17:08.955Z,12.80
2019-05-25T21:19:37.563Z,12.70
2019-05-25T21:22:06.166Z,12.60
2019-05-25T21:24:34.737Z,12.50
2019-05-25T21:27:03.542Z,12.40
2019-05-25T21:29:32.143Z,12.40
2019-05-25T21:32:00.726Z,12.40
2019-05-25T21:34:29.270Z,12.30
2019-05-25T21:36:57.884Z,12.30
2019-05-25T21:39:26.467Z,12.30
2019-05-25T21:41:55.067Z,12.30
2019-05-25T21:44:24.233Z,12.20
2019-05-25T21:46:52.843Z,12.10
2019-05-25T21:49:21.579Z,12.00
2019-05-25T21:51:50.271Z,11.90
2019-05-25T21:54:18.866Z,11.80
2019-05-25T21:56:47.435Z,11.70
2019-05-25T21:59:16.244Z,11.70
2019-05-25T22:01:44.937Z,11.70
2019-05-25T22:04:13.530Z,11.70
2019-05-25T22:06:42.284Z,11.70
2019-05-25T22:09:10.901Z,11.70
2019-05-25T22:11:39.452Z,11.60
2019-05-25T22:14:08.147Z,11.60
2019-05-25T22:16:36.733Z,11.60
2019-05-25T22:19:05.431Z,11.70
2019-05-25T22:21:34.060Z,11.70
2019-05-25T22:24:02.959Z,11.60
2019-05-25T22:26:31.562Z,11.50
2019-05-25T22:29:00.188Z,11.40
2019-05-25T22:31:28.813Z,11.40
2019-05-25T22:33:59.386Z,11.50
2019-05-25T22:36:39.591Z,11.50
2019-05-25T22:39:00.137Z,11.40
2019-05-25T22:41:28.907Z,11.30
2019-05-25T22:43:57.595Z,11.20
2019-05-25T22:46:26.255Z,11.00
2019-05-25T22:48:54.969Z,10.90
2019-05-25T22:51:23.654Z,10.90
2019-05-25T22:53:52.226Z,11.00
2019-05-25T22:56:20.814Z,11.10
2019-05-25T22:58:49.402Z,11.00
2019-05-25T23:01:18.087Z,10.80
2019-05-25T23:03:46.771Z,10.60
2019-05-25T23:06:15.313Z,10.50
2019-05-25T23:08:43.923Z,10.40
2019-05-25T23:11:12.662Z,10.40
2019-05-25T23:13:41.309Z,10.40
2019-05-25T23:16:11.534Z,10.40
2019-05-25T23:18:40.134Z,10.40
2019-05-25T23:21:08.803Z,10.30
2019-05-25T23:23:37.466Z,10.40
2019-05-25T23:26:06.047Z,10.30
2019-05-25T23:28:34.705Z,10.30
2019-05-25T23:31:03.275Z,10.30
2019-05-25T23:33:31.849Z,10.40
2019-05-25T23:36:00.444Z,10.40
2019-05-25T23:38:29.010Z,10.40
2019-05-25T23:40:57.578Z,10.40
2019-05-25T23:43:26.212Z,10.50
2019-05-25T23:45:54.972Z,10.50
2019-05-25T23:48:23.518Z,10.70
2019-05-25T23:50:52.302Z,10.60
2019-05-25T23:53:20.893Z,10.60
2019-05-25T23:55:49.583Z,10.60
2019-05-25T23:58:18.142Z,10.50
